createdAt,value
2023-02-06T00:02:28.307Z,104292.03
2023-02-06T00:04:56.725Z,104287.63
2023-02-06T00:07:24.896Z,104288.34
2023-02-06T00:09:52.869Z,104280.22
2023-02-06T00:12:21.378Z,104281.00
2023-02-06T00:14:50.948Z,104281.28
2023-02-06T00:17:19.113Z,104293.09
2023-02-06T00:19:47.206Z,104297.94
2023-02-06T00:22:15.277Z,104305.81
2023-02-06T00:24:43.324Z,104291.84
2023-02-06T00:27:11.294Z,104287.19
2023-02-06T00:29:39.440Z,104285.19
2023-02-06T00:32:08.822Z,104288.63
2023-02-06T00:34:36.925Z,104288.56
2023-02-06T00:37:04.992Z,104286.91
2023-02-06T00:39:33.208Z,104287.66
2023-02-06T00:42:02.952Z,104286.16
2023-02-06T00:44:30.953Z,104299.84
2023-02-06T00:46:59.336Z,104300.88
2023-02-06T00:49:30.430Z,104309.16
2023-02-06T00:51:58.459Z,104322.94
2023-02-06T00:54:26.714Z,104316.94
2023-02-06T00:56:54.759Z,104318.44
2023-02-06T00:59:22.692Z,104309.69
2023-02-06T01:01:50.855Z,104308.66
2023-02-06T01:04:18.892Z,104290.25
2023-02-06T01:06:48.378Z,104286.47
2023-02-06T01:09:16.493Z,104295.44
2023-02-06T01:11:44.828Z,104296.19
2023-02-06T01:14:12.761Z,104293.94
2023-02-06T01:16:41.188Z,104303.50
2023-02-06T01:19:09.210Z,104302.56
2023-02-06T01:21:38.354Z,104304.19
2023-02-06T01:24:07.949Z,104308.78
2023-02-06T01:26:35.903Z,104310.00
2023-02-06T01:29:04.329Z,104300.66
2023-02-06T01:31:32.870Z,104291.56
2023-02-06T01:34:01.846Z,104286.13
2023-02-06T01:36:29.921Z,104287.75
2023-02-06T01:38:58.387Z,104306.16
2023-02-06T01:41:27.955Z,104297.88
2023-02-06T01:44:13.482Z,104295.22
2023-02-06T01:46:43.479Z,104308.28
2023-02-06T01:49:16.634Z,104307.38
2023-02-06T01:51:45.682Z,104303.03
2023-02-06T01:54:15.623Z,104311.31
2023-02-06T01:56:50.969Z,104318.69
2023-02-06T01:59:19.226Z,104318.13
2023-02-06T02:01:48.509Z,104316.44
2023-02-06T02:04:20.483Z,104313.66
2023-02-06T02:06:56.485Z,104314.00
2023-02-06T02:09:25.766Z,104299.81
2023-02-06T02:11:55.359Z,104303.00
2023-02-06T02:14:23.660Z,104287.47
2023-02-06T02:17:07.250Z,104290.94
2023-02-06T02:20:17.640Z,104284.16
2023-02-06T02:22:53.791Z,104287.00
2023-02-06T02:25:58.006Z,104285.03
2023-02-06T02:28:54.590Z,104279.59
2023-02-06T02:31:59.772Z,104298.00
2023-02-06T02:35:01.500Z,104302.06
2023-02-06T02:37:43.022Z,104294.75
2023-02-06T02:40:20.325Z,104297.69
2023-02-06T02:42:54.508Z,104289.81
2023-02-06T02:45:27.256Z,104283.94
2023-02-06T02:48:00.112Z,104296.75
2023-02-06T02:50:30.691Z,104284.63
2023-02-06T02:53:00.301Z,104284.63
2023-02-06T02:55:28.305Z,104283.94
2023-02-06T02:58:07.414Z,104279.63
2023-02-06T03:00:40.695Z,104283.56
2023-02-06T03:03:11.332Z,104278.41
2023-02-06T03:05:46.666Z,104278.66
2023-02-06T03:08:23.552Z,104277.72
2023-02-06T03:11:05.260Z,104273.72
2023-02-06T03:13:36.571Z,104267.63
2023-02-06T03:16:13.833Z,104268.03
2023-02-06T03:18:48.904Z,104273.84
2023-02-06T03:21:22.019Z,104273.84
2023-02-06T03:23:54.316Z,104274.88
2023-02-06T03:26:27.210Z,104270.53
2023-02-06T03:28:59.775Z,104268.56
2023-02-06T03:31:31.940Z,104267.34
2023-02-06T03:34:07.342Z,104261.94
2023-02-06T03:36:37.373Z,104263.00
2023-02-06T03:39:05.755Z,104251.28
2023-02-06T03:41:37.439Z,104250.94
2023-02-06T03:44:09.984Z,104249.06
2023-02-06T03:46:40.974Z,104253.66
2023-02-06T03:49:13.666Z,104244.84
2023-02-06T03:51:48.770Z,104248.59
2023-02-06T03:54:21.199Z,104237.72
2023-02-06T03:56:54.208Z,104244.97
2023-02-06T03:59:24.881Z,104241.38
2023-02-06T04:01:57.173Z,104243.59
2023-02-06T04:04:29.845Z,104243.50
2023-02-06T04:07:02.767Z,104258.81
2023-02-06T04:09:30.940Z,104258.19
2023-02-06T04:11:59.070Z,104251.91
2023-02-06T04:14:27.165Z,104261.69
2023-02-06T04:16:55.524Z,104258.53
2023-02-06T04:19:23.877Z,104253.00
2023-02-06T04:21:51.771Z,104250.81
2023-02-06T04:24:21.213Z,104248.38
2023-02-06T04:26:49.345Z,104246.66
2023-02-06T04:29:17.482Z,104244.13
2023-02-06T04:31:50.324Z,104240.88
2023-02-06T04:34:18.767Z,104259.22
2023-02-06T04:36:46.735Z,104251.16
2023-02-06T04:39:14.925Z,104257.13
2023-02-06T04:41:44.288Z,104261.75
2023-02-06T04:44:12.584Z,104258.47
2023-02-06T04:46:41.213Z,104262.63
2023-02-06T04:49:09.176Z,104256.47
2023-02-06T04:51:37.624Z,104260.09
2023-02-06T04:54:06.560Z,104262.06
2023-02-06T04:56:34.828Z,104268.34
2023-02-06T04:59:04.472Z,104276.66
2023-02-06T05:01:32.470Z,104272.75
2023-02-06T05:04:00.452Z,104273.38
2023-02-06T05:06:29.627Z,104277.84
2023-02-06T05:08:57.945Z,104279.41
2023-02-06T05:11:26.005Z,104276.63
2023-02-06T05:13:54.192Z,104266.41
2023-02-06T05:16:24.135Z,104267.28
2023-02-06T05:18:55.492Z,104268.28
2023-02-06T05:21:27.659Z,104270.25
2023-02-06T05:23:55.817Z,104264.81
2023-02-06T05:26:24.096Z,104268.47
2023-02-06T05:28:52.041Z,104267.09
2023-02-06T05:31:20.787Z,104259.22
2023-02-06T05:33:52.468Z,104269.19
2023-02-06T05:36:21.219Z,104252.69
2023-02-06T05:38:49.911Z,104257.25
2023-02-06T05:41:18.449Z,104246.63
2023-02-06T05:43:46.464Z,104227.81
2023-02-06T05:46:14.757Z,104224.41
2023-02-06T05:48:43.272Z,104227.69
2023-02-06T05:51:13.026Z,104215.81
2023-02-06T05:53:41.171Z,104216.69
2023-02-06T05:56:09.658Z,104216.78
2023-02-06T05:58:37.923Z,104222.44
2023-02-06T06:01:07.177Z,104221.94
2023-02-06T06:03:35.648Z,104211.81
2023-02-06T06:06:04.355Z,104217.09
2023-02-06T06:08:34.536Z,104210.97
2023-02-06T06:11:03.223Z,104227.06
2023-02-06T06:13:31.675Z,104215.28
2023-02-06T06:15:59.703Z,104217.84
2023-02-06T06:18:28.034Z,104218.22
2023-02-06T06:20:56.338Z,104222.78
2023-02-06T06:23:24.936Z,104221.63
2023-02-06T06:25:54.316Z,104231.41
2023-02-06T06:28:22.459Z,104228.56
2023-02-06T06:30:50.484Z,104224.69
2023-02-06T06:33:19.278Z,104228.38
2023-02-06T06:35:47.498Z,104224.78
2023-02-06T06:38:15.740Z,104221.94
2023-02-06T06:40:43.930Z,104225.72
2023-02-06T06:43:13.310Z,104224.66
2023-02-06T06:45:41.556Z,104224.56
2023-02-06T06:48:09.519Z,104219.97
2023-02-06T06:50:37.621Z,104214.69
2023-02-06T06:53:05.845Z,104213.22
2023-02-06T06:55:34.335Z,104209.28
2023-02-06T06:58:02.988Z,104210.22
2023-02-06T07:00:35.307Z,104207.25
2023-02-06T07:03:03.752Z,104208.06
2023-02-06T07:05:31.817Z,104207.25
2023-02-06T07:07:59.956Z,104212.47
2023-02-06T07:10:28.068Z,104210.66
2023-02-06T07:12:56.660Z,104207.66
2023-02-06T07:15:25.240Z,104206.59
2023-02-06T07:17:54.640Z,104196.53
2023-02-06T07:20:23.583Z,104196.75
2023-02-06T07:22:51.679Z,104196.94
2023-02-06T07:25:20.362Z,104194.56
2023-02-06T07:27:48.762Z,104199.19
2023-02-06T07:30:17.114Z,104199.19
2023-02-06T07:32:45.317Z,104200.31
2023-02-06T07:35:15.700Z,104202.50
2023-02-06T07:37:43.646Z,104206.91
2023-02-06T07:40:13.011Z,104215.81
2023-02-06T07:42:41.541Z,104214.38
2023-02-06T07:45:18.262Z,104216.03
2023-02-06T07:47:46.450Z,104207.38
2023-02-06T07:50:17.234Z,104217.66
2023-02-06T07:52:45.242Z,104217.72
2023-02-06T07:55:13.328Z,104222.91
2023-02-06T07:57:42.514Z,104221.75
2023-02-06T08:00:12.014Z,104223.19
2023-02-06T08:02:40.354Z,104225.59
2023-02-06T08:05:09.766Z,104229.94
2023-02-06T08:07:39.206Z,104216.06
2023-02-06T08:10:08.421Z,104217.75
2023-02-06T08:12:36.549Z,104218.16
2023-02-06T08:15:05.297Z,104227.91
2023-02-06T08:17:33.662Z,104237.34
2023-02-06T08:20:03.195Z,104234.50
2023-02-06T08:22:31.409Z,104230.41
2023-02-06T08:25:00.757Z,104231.47
2023-02-06T08:27:28.876Z,104229.59
2023-02-06T08:29:59.329Z,104219.28
2023-02-06T08:32:27.784Z,104222.75
2023-02-06T08:34:55.882Z,104228.25
2023-02-06T08:37:24.654Z,104237.06
2023-02-06T08:39:52.568Z,104241.75
2023-02-06T08:42:21.970Z,104246.97
2023-02-06T08:44:50.339Z,104241.38
2023-02-06T08:47:18.397Z,104238.97
2023-02-06T08:49:46.571Z,104246.84
2023-02-06T08:52:14.666Z,104236.63
2023-02-06T08:54:42.614Z,104237.34
2023-02-06T08:57:12.583Z,104241.81
2023-02-06T08:59:44.965Z,104236.13
2023-02-06T09:02:13.166Z,104239.03
2023-02-06T09:04:42.705Z,104237.38
2023-02-06T09:07:10.738Z,104244.59
2023-02-06T09:09:38.889Z,104240.84
2023-02-06T09:12:07.455Z,104233.47
2023-02-06T09:14:35.866Z,104228.38
2023-02-06T09:17:05.865Z,104223.94
2023-02-06T09:19:34.145Z,104217.41
2023-02-06T09:22:02.304Z,104222.69
2023-02-06T09:24:32.197Z,104229.09
2023-02-06T09:27:01.093Z,104230.63
2023-02-06T09:29:31.877Z,104235.81
2023-02-06T09:32:00.516Z,104240.84
2023-02-06T09:34:30.274Z,104243.28
2023-02-06T09:36:58.542Z,104243.53
2023-02-06T09:39:27.003Z,104247.16
2023-02-06T09:42:00.974Z,104250.63
2023-02-06T09:44:33.546Z,104238.72
2023-02-06T09:47:07.186Z,104237.72
2023-02-06T09:49:40.784Z,104234.66
2023-02-06T09:52:14.513Z,104243.56
2023-02-06T09:54:52.893Z,104247.41
2023-02-06T09:57:31.323Z,104241.72
2023-02-06T10:00:04.210Z,104244.50
2023-02-06T10:03:08.214Z,104251.41
2023-02-06T10:05:49.515Z,104258.34
2023-02-06T10:08:22.487Z,104238.09
2023-02-06T10:10:54.520Z,104232.22
2023-02-06T10:13:32.522Z,104238.22
2023-02-06T10:16:05.462Z,104235.41
2023-02-06T10:18:37.398Z,104234.25
2023-02-06T10:21:13.752Z,104231.38
2023-02-06T10:23:51.614Z,104231.25
2023-02-06T10:26:22.546Z,104236.88
2023-02-06T10:28:53.652Z,104231.78
2023-02-06T10:31:45.037Z,104225.94
2023-02-06T10:34:30.858Z,104218.75
2023-02-06T10:37:16.173Z,104211.31
2023-02-06T10:39:59.542Z,104210.72
2023-02-06T10:42:37.987Z,104218.16
2023-02-06T10:45:20.225Z,104216.75
2023-02-06T10:47:55.147Z,104210.22
2023-02-06T10:50:29.710Z,104207.41
2023-02-06T10:53:05.093Z,104201.56
2023-02-06T10:55:43.958Z,104212.22
2023-02-06T10:58:18.106Z,104215.00
2023-02-06T11:00:47.242Z,104216.09
2023-02-06T11:03:21.104Z,104211.63
2023-02-06T11:05:50.085Z,104211.47
2023-02-06T11:08:26.487Z,104212.13
2023-02-06T11:10:54.796Z,104207.41
2023-02-06T11:13:27.969Z,104215.13
2023-02-06T11:16:01.507Z,104207.41
2023-02-06T11:18:34.866Z,104207.94
2023-02-06T11:21:03.671Z,104206.63
2023-02-06T11:23:34.660Z,104196.91
2023-02-06T11:26:10.646Z,104200.69
2023-02-06T11:28:49.399Z,104203.91
2023-02-06T11:31:20.775Z,104210.19
2023-02-06T11:33:51.674Z,104204.19
2023-02-06T11:36:25.654Z,104207.16
2023-02-06T11:39:00.482Z,104193.03
2023-02-06T11:41:30.298Z,104194.28
2023-02-06T11:44:02.816Z,104186.78
2023-02-06T11:46:35.152Z,104184.72
2023-02-06T11:49:07.224Z,104185.97
2023-02-06T11:51:51.489Z,104188.38
2023-02-06T11:54:28.239Z,104184.41
2023-02-06T11:57:03.636Z,104180.91
2023-02-06T11:59:34.965Z,104173.38
2023-02-06T12:02:06.998Z,104176.50
2023-02-06T12:04:38.804Z,104177.06
2023-02-06T12:07:16.709Z,104180.34
2023-02-06T12:09:46.157Z,104168.19
2023-02-06T12:12:28.151Z,104169.59
2023-02-06T12:14:59.456Z,104164.84
2023-02-06T12:17:33.886Z,104160.03
2023-02-06T12:20:09.429Z,104158.56
2023-02-06T12:22:41.465Z,104166.13
2023-02-06T12:25:25.000Z,104164.09
2023-02-06T12:27:54.551Z,104169.84
2023-02-06T12:30:35.747Z,104175.19
2023-02-06T12:33:11.076Z,104170.53
2023-02-06T12:35:45.030Z,104161.41
2023-02-06T12:38:21.832Z,104151.22
2023-02-06T12:41:06.386Z,104153.97
2023-02-06T12:43:37.035Z,104145.22
2023-02-06T12:46:08.976Z,104140.09
2023-02-06T12:48:45.097Z,104148.47
2023-02-06T12:51:20.552Z,104138.97
2023-02-06T12:53:53.191Z,104144.78
2023-02-06T12:56:31.618Z,104137.38
2023-02-06T12:59:12.026Z,104128.22
2023-02-06T13:01:50.187Z,104125.41
2023-02-06T13:04:20.746Z,104134.31
2023-02-06T13:06:54.543Z,104129.78
2023-02-06T13:09:27.763Z,104129.09
2023-02-06T13:12:08.568Z,104123.63
2023-02-06T13:14:38.284Z,104117.81
2023-02-06T13:17:11.759Z,104123.34
2023-02-06T13:20:03.559Z,104111.94
2023-02-06T13:22:44.865Z,104109.22
2023-02-06T13:25:49.663Z,104106.47
2023-02-06T13:28:59.948Z,104103.53
2023-02-06T13:31:34.584Z,104100.00
2023-02-06T13:34:08.128Z,104095.19
2023-02-06T13:36:47.733Z,104095.19
2023-02-06T13:39:30.651Z,104092.38
2023-02-06T13:42:03.984Z,104092.19
2023-02-06T13:44:37.788Z,104099.44
2023-02-06T13:47:48.886Z,104087.06
2023-02-06T13:50:36.451Z,104090.88
2023-02-06T13:53:21.376Z,104098.34
2023-02-06T13:56:00.967Z,104093.44
2023-02-06T13:58:44.428Z,104094.38
2023-02-06T14:01:22.918Z,104098.66
2023-02-06T14:03:52.283Z,104102.19
2023-02-06T14:06:47.770Z,104094.94
2023-02-06T14:09:34.081Z,104097.28
2023-02-06T14:12:30.594Z,104086.94
2023-02-06T14:15:09.718Z,104093.19
2023-02-06T14:17:57.070Z,104095.06
2023-02-06T14:20:35.329Z,104098.84
2023-02-06T14:23:15.648Z,104090.75
2023-02-06T14:25:56.147Z,104094.94
2023-02-06T14:28:32.729Z,104087.28
2023-02-06T14:31:11.606Z,104083.97
2023-02-06T14:34:02.265Z,104091.84
2023-02-06T14:37:03.350Z,104086.59
2023-02-06T14:40:04.827Z,104088.06
2023-02-06T14:43:14.641Z,104083.06
2023-02-06T14:46:19.930Z,104075.00
2023-02-06T14:49:26.478Z,104088.16
2023-02-06T14:52:16.928Z,104081.13
2023-02-06T14:58:41.468Z,104081.94
2023-02-06T15:01:41.711Z,104085.00
2023-02-06T15:04:38.418Z,104078.66
2023-02-06T15:07:38.372Z,104072.00
2023-02-06T15:10:31.104Z,104076.50
2023-02-06T15:13:47.891Z,104072.94
2023-02-06T15:16:32.625Z,104078.19
2023-02-06T15:19:40.180Z,104077.16
2023-02-06T15:22:38.562Z,104075.47
2023-02-06T15:25:51.077Z,104062.09
2023-02-06T15:28:35.150Z,104064.44
2023-02-06T15:43:03.665Z,104049.09
2023-02-06T15:45:35.908Z,104046.25
2023-02-06T15:48:12.230Z,104050.75
2023-02-06T15:50:40.556Z,104060.44
2023-02-06T15:53:29.335Z,104048.09
2023-02-06T15:55:58.723Z,104045.78
2023-02-06T15:58:28.491Z,104047.06
2023-02-06T16:00:59.377Z,104047.97
2023-02-06T16:03:30.462Z,104050.78
2023-02-06T16:05:59.370Z,104045.06
2023-02-06T16:08:33.558Z,104053.19
2023-02-06T16:11:26.688Z,104064.13
2023-02-06T16:13:58.369Z,104062.94
2023-02-06T16:16:27.839Z,104062.16
2023-02-06T16:18:59.717Z,104070.41
2023-02-06T16:21:30.368Z,104083.19
2023-02-06T16:24:16.474Z,104090.78
2023-02-06T16:26:47.954Z,104089.78
2023-02-06T16:29:25.614Z,104093.78
2023-02-06T16:32:00.229Z,104094.13
2023-02-06T16:34:37.485Z,104095.53
2023-02-06T16:37:12.033Z,104094.25
2023-02-06T16:39:42.555Z,104096.22
2023-02-06T16:42:15.116Z,104112.97
2023-02-06T16:44:47.321Z,104119.16
2023-02-06T16:47:19.492Z,104116.44
2023-02-06T16:49:49.710Z,104113.00
2023-02-06T16:52:21.715Z,104109.84
2023-02-06T16:54:50.881Z,104115.81
2023-02-06T16:57:26.094Z,104118.97
2023-02-06T16:59:55.990Z,104113.09
2023-02-06T17:02:24.120Z,104115.72
2023-02-06T17:04:52.609Z,104120.59
2023-02-06T17:07:23.956Z,104115.38
2023-02-06T17:09:54.810Z,104114.06
2023-02-06T17:12:23.776Z,104116.34
2023-02-06T17:14:52.178Z,104117.31
2023-02-06T17:17:23.735Z,104122.06
2023-02-06T17:19:53.370Z,104113.38
2023-02-06T17:22:22.641Z,104118.81
2023-02-06T17:24:50.992Z,104124.28
2023-02-06T17:27:22.239Z,104125.75
2023-02-06T17:29:51.290Z,104114.56
2023-02-06T17:32:22.372Z,104113.03
2023-02-06T17:34:54.485Z,104127.69
2023-02-06T17:37:22.976Z,104119.28
2023-02-06T17:39:52.653Z,104122.53
2023-02-06T17:42:23.456Z,104117.97
2023-02-06T17:44:52.004Z,104115.06
2023-02-06T17:47:20.662Z,104121.72
2023-02-06T17:49:52.078Z,104123.47
2023-02-06T17:52:20.406Z,104125.94
2023-02-06T17:54:48.790Z,104123.88
2023-02-06T17:57:17.060Z,104125.81
2023-02-06T17:59:45.223Z,104114.41
2023-02-06T18:02:14.998Z,104121.91
2023-02-06T18:04:43.525Z,104122.69
2023-02-06T18:07:13.514Z,104114.44
2023-02-06T18:09:42.215Z,104119.66
2023-02-06T18:12:10.549Z,104105.16
2023-02-06T18:14:40.007Z,104118.13
2023-02-06T18:17:08.671Z,104112.28
2023-02-06T18:19:42.283Z,104106.84
2023-02-06T18:22:12.251Z,104111.34
2023-02-06T18:24:41.962Z,104112.78
2023-02-06T18:27:11.098Z,104096.69
2023-02-06T18:29:49.502Z,104101.81
2023-02-06T18:32:18.836Z,104103.56
2023-02-06T18:34:48.392Z,104097.13
2023-02-06T18:37:16.975Z,104090.25
2023-02-06T18:39:46.575Z,104094.81
2023-02-06T18:42:32.302Z,104085.53
2023-02-06T18:45:01.494Z,104089.09
2023-02-06T18:47:31.707Z,104081.34
2023-02-06T18:49:59.704Z,104077.44
2023-02-06T18:52:27.727Z,104067.44
2023-02-06T18:54:58.686Z,104064.66
2023-02-06T18:57:27.557Z,104063.81
2023-02-06T18:59:56.669Z,104062.22
2023-02-06T19:02:25.090Z,104060.53
2023-02-06T19:04:54.461Z,104056.06
2023-02-06T19:07:22.676Z,104054.94
2023-02-06T19:09:50.809Z,104054.06
2023-02-06T19:12:20.636Z,104051.66
2023-02-06T19:14:50.782Z,104053.75
2023-02-06T19:17:19.269Z,104060.31
2023-02-06T19:19:47.281Z,104053.50
2023-02-06T19:22:15.424Z,104044.59
2023-02-06T19:24:44.598Z,104049.91
2023-02-06T19:27:14.000Z,104041.59
2023-02-06T19:29:43.291Z,104051.47
2023-02-06T19:32:11.627Z,104047.97
2023-02-06T19:34:41.273Z,104060.25
2023-02-06T19:37:10.801Z,104059.44
2023-02-06T19:39:40.371Z,104063.53
2023-02-06T19:42:10.717Z,104066.94
2023-02-06T19:44:38.986Z,104069.59
2023-02-06T19:47:08.926Z,104058.41
2023-02-06T19:49:37.225Z,104060.03
2023-02-06T19:52:06.296Z,104067.09
2023-02-06T19:54:34.411Z,104055.53
2023-02-06T19:57:03.146Z,104058.13
2023-02-06T19:59:31.687Z,104054.50
2023-02-06T20:02:02.497Z,104053.44
2023-02-06T20:04:37.849Z,104049.09
2023-02-06T20:07:10.249Z,104052.63
2023-02-06T20:09:42.407Z,104059.00
2023-02-06T20:12:13.800Z,104059.56
2023-02-06T20:14:43.002Z,104055.97
2023-02-06T20:17:15.359Z,104062.34
2023-02-06T20:19:46.229Z,104071.00
2023-02-06T20:22:16.816Z,104065.41
2023-02-06T20:24:51.856Z,104070.91
2023-02-06T20:27:21.867Z,104064.28
2023-02-06T20:29:52.066Z,104062.34
2023-02-06T20:32:46.798Z,104069.91
2023-02-06T20:35:20.830Z,104062.13
2023-02-06T20:37:58.552Z,104066.31
2023-02-06T20:40:31.074Z,104063.75
2023-02-06T20:43:03.810Z,104061.94
2023-02-06T20:45:40.458Z,104062.00
2023-02-06T20:48:11.871Z,104068.63
2023-02-06T20:50:43.912Z,104059.81
2023-02-06T20:53:14.263Z,104058.47
2023-02-06T20:55:44.273Z,104059.06
2023-02-06T20:58:13.886Z,104061.03
2023-02-06T21:00:44.181Z,104063.69
2023-02-06T21:03:17.491Z,104065.22
2023-02-06T21:06:05.523Z,104065.97
2023-02-06T21:08:35.600Z,104064.00
2023-02-06T21:11:08.938Z,104064.00
2023-02-06T21:13:43.465Z,104061.50
2023-02-06T21:16:15.490Z,104056.84
2023-02-06T21:18:47.335Z,104055.97
2023-02-06T21:21:18.682Z,104050.03
2023-02-06T21:23:48.709Z,104054.94
2023-02-06T21:26:19.406Z,104047.53
2023-02-06T21:28:48.783Z,104044.53
2023-02-06T21:31:20.742Z,104055.16
2023-02-06T21:33:52.498Z,104065.31
2023-02-06T21:36:24.780Z,104059.66
2023-02-06T21:38:55.084Z,104056.34
2023-02-06T21:41:26.908Z,104061.41
2023-02-06T21:43:56.948Z,104062.97
2023-02-06T21:46:26.629Z,104048.78
2023-02-06T21:48:55.948Z,104061.63
2023-02-06T21:51:26.851Z,104060.75
2023-02-06T21:53:56.685Z,104063.94
2023-02-06T21:56:28.254Z,104059.50
2023-02-06T21:58:58.140Z,104058.50
2023-02-06T22:01:41.259Z,104068.78
2023-02-06T22:04:16.484Z,104070.47
2023-02-06T22:06:49.134Z,104068.63
2023-02-06T22:09:21.034Z,104067.81
2023-02-06T22:11:50.655Z,104066.66
2023-02-06T22:14:20.741Z,104071.47
2023-02-06T22:16:54.746Z,104076.97
2023-02-06T22:19:31.752Z,104078.47
2023-02-06T22:22:06.779Z,104080.13
2023-02-06T22:24:37.423Z,104080.59
2023-02-06T22:27:07.096Z,104083.06
2023-02-06T22:29:38.910Z,104082.94
2023-02-06T22:32:07.873Z,104089.03
2023-02-06T22:34:36.967Z,104089.03
2023-02-06T22:37:12.609Z,104078.31
2023-02-06T22:39:40.729Z,104076.59
2023-02-06T22:42:12.968Z,104075.84
2023-02-06T22:44:43.293Z,104066.72
2023-02-06T22:47:14.230Z,104072.19
2023-02-06T22:49:43.304Z,104077.56
2023-02-06T22:52:27.281Z,104068.53
2023-02-06T22:54:56.048Z,104069.47
2023-02-06T22:57:25.959Z,104069.84
2023-02-06T22:59:55.505Z,104074.47
2023-02-06T23:02:23.780Z,104080.09
2023-02-06T23:04:52.541Z,104076.16
2023-02-06T23:07:24.012Z,104083.56
2023-02-06T23:09:52.734Z,104093.31
2023-02-06T23:12:21.002Z,104092.28
2023-02-06T23:14:49.011Z,104091.81
2023-02-06T23:17:16.952Z,104103.56
2023-02-06T23:19:45.046Z,104101.78
2023-02-06T23:22:13.371Z,104103.97
2023-02-06T23:24:42.738Z,104100.44
2023-02-06T23:27:10.636Z,104114.91
2023-02-06T23:29:38.754Z,104113.88
2023-02-06T23:32:06.730Z,104119.34
2023-02-06T23:34:39.980Z,104112.19
2023-02-06T23:37:08.147Z,104105.59
2023-02-06T23:39:36.296Z,104110.13
2023-02-06T23:42:05.729Z,104106.94
2023-02-06T23:44:33.716Z,104111.63
2023-02-06T23:47:01.644Z,104118.28
2023-02-06T23:49:29.789Z,104111.78
2023-02-06T23:51:57.914Z,104110.00
2023-02-06T23:54:25.857Z,104112.78
2023-02-06T23:56:53.853Z,104119.91
2023-02-06T23:59:23.448Z,104120.84
